Time;durP1;ratioP1;P1;durP2;ratioP2;P2;SDS_P1;SDS_P2;PMS_P1;PMS_P2;Temp;Humidity;BMP_temperature;BMP_pressure;BME280_temperature;BME280_humidity;BME280_pressure;Samples;Min_cycle;Max_cycle;Signal;HPM_P1;HPM_P2
2023/09/23 00:04:07;;;;;;;1.20;0.80;;;;;;;;;;10271728;28;20801;-79
2023/09/23 00:09:19;;;;;;;1.10;0.50;;;;;;;;;;10270094;28;21011;-79
2023/09/23 00:15:05;;;;;;;1.38;0.70;;;;;;;;;;10276600;28;20960;-78
2023/09/23 00:20:17;;;;;;;1.55;0.70;;;;;;;;;;10274882;28;20431;-80
2023/09/23 00:25:26;;;;;;;1.40;0.90;;;;;;;;;;10276138;28;20435;-81
2023/09/23 00:30:53;;;;;;;1.85;0.88;;;;;;;;;;10274123;28;21311;-80
2023/09/23 00:36:03;;;;;;;1.43;0.70;;;;;;;;;;10270285;28;20439;-80
2023/09/23 00:41:09;;;;;;;2.03;0.70;;;;;;;;;;10268550;28;20510;-80
2023/09/23 00:46:21;;;;;;;3.10;0.70;;;;;;;;;;10255554;28;20937;-80
2023/09/23 00:51:33;;;;;;;1.13;0.73;;;;;;;;;;10269112;28;20432;-79
2023/09/23 00:56:46;;;;;;;0.93;0.70;;;;;;;;;;10246245;28;20444;-80
2023/09/23 01:01:53;;;;;;;1.10;0.60;;;;;;;;;;10254748;28;20526;-79
2023/09/23 01:07:09;;;;;;;1.38;0.63;;;;;;;;;;10237796;28;20436;-79
2023/09/23 01:12:16;;;;;;;1.50;0.70;;;;;;;;;;10270520;28;20956;-79
2023/09/23 01:23:23;;;;;;;1.05;0.70;;;;;;;;;;10271614;28;20428;-78
2023/09/23 01:33:55;;;;;;;1.35;0.70;;;;;;;;;;10269011;28;20985;-79
2023/09/23 01:39:09;;;;;;;1.57;0.70;;;;;;;;;;10271957;28;20552;-80
2023/09/23 01:44:30;;;;;;;1.58;0.60;;;;;;;;;;10271027;28;20440;-80
2023/09/23 01:49:39;;;;;;;1.50;0.57;;;;;;;;;;10238349;28;20435;-80
2023/09/23 01:54:46;;;;;;;1.40;0.80;;;;;;;;;;10269459;28;20526;-80
2023/09/23 01:59:57;;;;;;;1.52;0.70;;;;;;;;;;10269387;28;20499;-78
2023/09/23 02:05:08;;;;;;;1.53;0.87;;;;;;;;;;10272285;28;20435;-78
2023/09/23 02:15:47;;;;;;;1.17;0.70;;;;;;;;;;10280843;28;20490;-79
2023/09/23 02:20:58;;;;;;;1.40;0.70;;;;;;;;;;10277063;28;20936;-79
2023/09/23 02:26:08;;;;;;;0.67;0.40;;;;;;;;;;10274117;28;20466;-79
2023/09/23 02:31:36;;;;;;;2.20;0.40;;;;;;;;;;10282621;28;20537;-79
2023/09/23 02:36:50;;;;;;;1.03;0.60;;;;;;;;;;10259020;28;20748;-78
2023/09/23 02:42:04;;;;;;;1.90;0.60;;;;;;;;;;10253993;28;20436;-78
2023/09/23 02:47:23;;;;;;;0.70;0.40;;;;;;;;;;10276021;28;20447;-79
2023/09/23 02:52:34;;;;;;;1.67;0.60;;;;;;;;;;10276025;28;20439;-78
2023/09/23 02:57:40;;;;;;;0.90;0.60;;;;;;;;;;10257039;28;20522;-79
2023/09/23 03:02:54;;;;;;;1.53;0.50;;;;;;;;;;10274341;28;20941;-79
2023/09/23 03:08:07;;;;;;;1.50;0.60;;;;;;;;;;10260798;28;20496;-78
2023/09/23 03:13:25;;;;;;;1.08;0.60;;;;;;;;;;10272882;28;20435;-78
2023/09/23 03:18:33;;;;;;;1.98;0.60;;;;;;;;;;10258867;28;20522;-80
2023/09/23 03:23:45;;;;;;;1.27;0.68;;;;;;;;;;10258578;28;20448;-80
2023/09/23 03:28:50;;;;;;;2.77;0.83;;;;;;;;;;10255232;28;20542;-80
2023/09/23 03:34:13;;;;;;;2.47;0.80;;;;;;;;;;10255499;28;20440;-80
2023/09/23 03:45:06;;;;;;;1.45;0.70;;;;;;;;;;10265430;28;20497;-80
2023/09/23 03:50:14;;;;;;;3.10;0.90;;;;;;;;;;10254697;28;20435;-81
2023/09/23 03:55:22;;;;;;;3.10;0.90;;;;;;;;;;10243408;28;20428;-80
2023/09/23 04:00:36;;;;;;;1.98;1.10;;;;;;;;;;10255924;28;21225;-80
2023/09/23 04:05:47;;;;;;;3.67;0.95;;;;;;;;;;10258082;28;20431;-79
2023/09/23 04:10:53;;;;;;;1.27;0.82;;;;;;;;;;10256575;28;20515;-80
2023/09/23 04:16:05;;;;;;;1.50;0.90;;;;;;;;;;10271802;28;20858;-79
2023/09/23 04:21:22;;;;;;;2.28;1.10;;;;;;;;;;10273692;28;20455;-78
2023/09/23 04:26:28;;;;;;;2.33;0.95;;;;;;;;;;10271602;28;20432;-79
2023/09/23 04:31:42;;;;;;;2.10;1.00;;;;;;;;;;10267452;28;20448;-78
2023/09/23 04:36:51;;;;;;;2.37;1.00;;;;;;;;;;10272223;28;20540;-79
2023/09/23 04:42:22;;;;;;;2.47;1.10;;;;;;;;;;10272281;28;20511;-79
2023/09/23 04:47:32;;;;;;;2.35;1.00;;;;;;;;;;10267294;28;20953;-78
2023/09/23 04:52:42;;;;;;;2.57;0.90;;;;;;;;;;10250508;28;20607;-79
2023/09/23 04:57:50;;;;;;;2.20;1.00;;;;;;;;;;10252766;28;21046;-79
2023/09/23 05:03:05;;;;;;;2.42;1.30;;;;;;;;;;10268644;28;20437;-79
2023/09/23 05:08:13;;;;;;;3.20;1.52;;;;;;;;;;10249681;28;20450;-78
2023/09/23 05:13:56;;;;;;;3.60;1.20;;;;;;;;;;10271102;28;20424;-78
2023/09/23 05:19:19;;;;;;;3.10;1.20;;;;;;;;;;10273533;28;21072;-79
2023/09/23 05:24:57;;;;;;;2.15;1.20;;;;;;;;;;10269209;28;20905;-80
2023/09/23 05:30:10;;;;;;;3.60;1.45;;;;;;;;;;10248896;28;20462;-80
2023/09/23 05:35:35;;;;;;;2.30;1.45;;;;;;;;;;10272855;28;20926;-79
2023/09/23 05:40:41;;;;;;;3.50;1.40;;;;;;;;;;10264916;28;20432;-79
2023/09/23 05:45:46;;;;;;;2.90;1.35;;;;;;;;;;10266827;28;20541;-80
2023/09/23 05:51:08;;;;;;;2.95;1.60;;;;;;;;;;10252970;28;20435;-80
2023/09/23 05:56:28;;;;;;;2.85;1.33;;;;;;;;;;10270428;28;20506;-78
2023/09/23 06:01:40;;;;;;;3.70;1.47;;;;;;;;;;10269892;28;20438;-79
2023/09/23 06:06:54;;;;;;;3.10;1.42;;;;;;;;;;10254015;28;20432;-78
2023/09/23 06:12:07;;;;;;;4.20;1.55;;;;;;;;;;10251874;28;20435;-79
2023/09/23 06:17:18;;;;;;;3.60;1.67;;;;;;;;;;10256172;28;20441;-81
2023/09/23 06:22:35;;;;;;;3.60;1.83;;;;;;;;;;10269536;28;20789;-81
2023/09/23 06:27:48;;;;;;;4.67;1.53;;;;;;;;;;10241175;28;20518;-80
2023/09/23 06:38:31;;;;;;;3.07;1.90;;;;;;;;;;10276997;28;20447;-81
2023/09/23 06:44:30;;;;;;;4.43;2.05;;;;;;;;;;10264602;28;20494;-80
2023/09/23 06:49:47;;;;;;;3.60;1.80;;;;;;;;;;10270549;28;20956;-80
2023/09/23 06:55:21;;;;;;;3.28;1.58;;;;;;;;;;10259897;28;20467;-80
2023/09/23 07:00:46;;;;;;;2.70;1.60;;;;;;;;;;10279424;28;20428;-78
2023/09/23 07:06:08;;;;;;;2.42;1.45;;;;;;;;;;10280212;28;20431;-78
2023/09/23 07:22:18;;;;;;;4.32;1.58;;;;;;;;;;10269212;28;20440;-79
2023/09/23 07:27:24;;;;;;;2.47;1.30;;;;;;;;;;10267686;28;20470;-77
2023/09/23 07:32:40;;;;;;;3.50;1.50;;;;;;;;;;10265345;28;20802;-80
2023/09/23 07:37:53;;;;;;;3.63;1.55;;;;;;;;;;10265209;28;20432;-78
2023/09/23 07:43:10;;;;;;;2.00;1.27;;;;;;;;;;10283793;28;20524;-76
2023/09/23 07:48:19;;;;;;;2.33;1.50;;;;;;;;;;10260527;28;20506;-77
2023/09/23 07:58:48;;;;;;;2.70;1.40;;;;;;;;;;10282931;28;20523;-76
2023/09/23 08:04:01;;;;;;;3.17;1.30;;;;;;;;;;10270008;28;20428;-76
2023/09/23 08:09:10;;;;;;;3.77;1.43;;;;;;;;;;10278997;28;20439;-77
2023/09/23 08:14:24;;;;;;;1.75;1.10;;;;;;;;;;10261808;28;20436;-76
2023/09/23 08:19:38;;;;;;;3.33;1.13;;;;;;;;;;10261916;28;20853;-76
2023/09/23 08:24:47;;;;;;;3.38;0.90;;;;;;;;;;10258138;28;20435;-77
2023/09/23 08:29:56;;;;;;;1.95;1.10;;;;;;;;;;10288466;28;20452;-77
2023/09/23 08:35:05;;;;;;;1.52;1.00;;;;;;;;;;10277615;28;20450;-81
2023/09/23 08:40:19;;;;;;;2.58;1.40;;;;;;;;;;10261346;28;20476;-80
2023/09/23 08:45:42;;;;;;;2.63;1.00;;;;;;;;;;10279279;28;20620;-77
2023/09/23 08:50:51;;;;;;;1.45;0.75;;;;;;;;;;10241434;28;20461;-77
2023/09/23 08:56:00;;;;;;;3.50;1.10;;;;;;;;;;10273444;28;20431;-76
2023/09/23 09:01:13;;;;;;;2.53;0.98;;;;;;;;;;10256908;28;20516;-77
2023/09/23 09:06:40;;;;;;;1.73;0.93;;;;;;;;;;10238000;28;20498;-78
2023/09/23 09:11:48;;;;;;;1.73;1.00;;;;;;;;;;10255741;28;20541;-79
2023/09/23 09:16:55;;;;;;;2.15;0.75;;;;;;;;;;10268534;28;20600;-77
2023/09/23 09:22:23;;;;;;;3.97;1.83;;;;;;;;;;10269338;28;20488;-78
2023/09/23 09:27:31;;;;;;;1.75;0.80;;;;;;;;;;10269624;28;20485;-78
2023/09/23 09:32:48;;;;;;;1.65;0.90;;;;;;;;;;10247220;28;20436;-78
2023/09/23 09:43:29;;;;;;;2.90;1.00;;;;;;;;;;10271245;28;20956;-80
2023/09/23 09:48:39;;;;;;;2.50;0.88;;;;;;;;;;10252038;28;20436;-79
2023/09/23 09:53:55;;;;;;;2.20;1.00;;;;;;;;;;10268055;28;20443;-78
2023/09/23 09:59:17;;;;;;;2.00;1.00;;;;;;;;;;10271655;28;21001;-78
2023/09/23 10:04:23;;;;;;;1.87;0.80;;;;;;;;;;10251397;28;21338;-77
2023/09/23 10:09:53;;;;;;;1.40;0.73;;;;;;;;;;10254185;28;20470;-78
2023/09/23 10:20:24;;;;;;;3.10;1.00;;;;;;;;;;10275052;28;20444;-79
2023/09/23 10:25:42;;;;;;;3.10;0.80;;;;;;;;;;10273635;28;20551;-80
2023/09/23 10:31:00;;;;;;;1.48;0.80;;;;;;;;;;10288077;28;20853;-85
2023/09/23 10:36:24;;;;;;;4.88;0.93;;;;;;;;;;10278602;28;20508;-91
2023/09/23 10:41:37;;;;;;;1.92;0.90;;;;;;;;;;10318490;28;20525;-93
2023/09/23 10:47:00;;;;;;;1.00;0.80;;;;;;;;;;10295965;28;20433;-89
2023/09/23 10:52:09;;;;;;;3.10;0.85;;;;;;;;;;10295714;28;20432;-92
2023/09/23 10:57:18;;;;;;;1.80;0.80;;;;;;;;;;10299158;28;20523;-93
2023/09/23 11:02:36;;;;;;;1.98;0.80;;;;;;;;;;10317379;28;20508;-89
2023/09/23 11:07:42;;;;;;;1.05;0.68;;;;;;;;;;10280035;28;20504;-91
2023/09/23 11:12:50;;;;;;;0.88;0.60;;;;;;;;;;10307980;28;20532;-92
2023/09/23 11:18:05;;;;;;;1.08;0.50;;;;;;;;;;10324514;28;20416;-90
2023/09/23 11:23:20;;;;;;;1.70;0.70;;;;;;;;;;10300586;28;20416;-92
2023/09/23 11:28:43;;;;;;;4.97;1.38;;;;;;;;;;10317288;28;20577;-93
2023/09/23 11:33:59;;;;;;;1.10;0.70;;;;;;;;;;10306612;28;20459;-92
2023/09/23 11:39:52;;;;;;;2.67;0.95;;;;;;;;;;10313516;28;20443;-92
2023/09/23 11:45:13;;;;;;;1.88;0.90;;;;;;;;;;10315199;28;20429;-89
2023/09/23 11:50:31;;;;;;;0.90;0.60;;;;;;;;;;10283456;28;20509;-90
2023/09/23 15:34:10;;;;;;;1.80;0.73;;;;;;;;;;10276527;28;20446;-90
2023/09/23 15:39:14;;;;;;;3.03;0.82;;;;;;;;;;10269059;28;20423;-87
2023/09/23 15:44:17;;;;;;;3.55;1.40;;;;;;;;;;10278346;28;20444;-92
2023/09/23 15:49:23;;;;;;;2.70;1.00;;;;;;;;;;10284936;28;20453;-88
2023/09/23 15:54:27;;;;;;;2.57;0.87;;;;;;;;;;10287968;28;20504;-93
2023/09/23 16:05:17;;;;;;;2.78;0.90;;;;;;;;;;10273407;28;20437;-94
2023/09/23 16:51:46;;;;;;;3.50;1.23;;;;;;;;;;10270200;28;20562;-95
2023/09/23 17:08:56;;;;;;;7.00;3.50;;;;;;;;;;10269256;28;20590;-93
2023/09/23 17:32:11;;;;;;;2.97;1.33;;;;;;;;;;10289545;28;20531;-94
2023/09/23 17:37:16;;;;;;;3.87;1.40;;;;;;;;;;10286138;28;20429;-94
2023/09/23 17:42:35;;;;;;;3.33;1.40;;;;;;;;;;10283183;28;20511;-95
2023/09/23 17:47:42;;;;;;;4.43;1.58;;;;;;;;;;10272884;28;20427;-95
2023/09/23 17:52:55;;;;;;;3.13;1.60;;;;;;;;;;10288890;28;20425;-94
2023/09/23 17:58:35;;;;;;;3.53;1.70;;;;;;;;;;10276492;28;20461;-94
2023/09/23 18:09:42;;;;;;;3.55;1.90;;;;;;;;;;10290608;28;20409;-94
2023/09/23 18:14:57;;;;;;;6.37;2.10;;;;;;;;;;10288251;28;20457;-94
2023/09/23 18:20:13;;;;;;;5.32;1.70;;;;;;;;;;10289467;28;20429;-95
2023/09/23 18:31:00;;;;;;;3.13;1.70;;;;;;;;;;10280097;28;20442;-95
2023/09/23 18:41:52;;;;;;;5.18;2.10;;;;;;;;;;10285789;28;20440;-94
2023/09/23 18:47:14;;;;;;;5.47;2.47;;;;;;;;;;10278777;28;20460;-94
2023/09/23 18:57:53;;;;;;;6.10;2.30;;;;;;;;;;10288799;28;20926;-94
2023/09/23 19:03:22;;;;;;;5.80;2.33;;;;;;;;;;10274897;28;20501;-95
2023/09/23 19:13:54;;;;;;;3.80;1.90;;;;;;;;;;10270346;28;20547;-95
2023/09/23 19:19:10;;;;;;;5.00;2.00;;;;;;;;;;10259336;29;20437;-94
2023/09/23 19:24:29;;;;;;;3.13;1.73;;;;;;;;;;10278283;28;20816;-95
2023/09/23 19:29:36;;;;;;;4.28;1.70;;;;;;;;;;10256944;28;20439;-95
2023/09/23 19:34:46;;;;;;;3.47;1.90;;;;;;;;;;10255649;28;20474;-94
2023/09/23 19:39:51;;;;;;;3.38;1.60;;;;;;;;;;10241357;28;20435;-95
2023/09/23 19:45:03;;;;;;;4.77;1.70;;;;;;;;;;10258678;28;20457;-96
2023/09/23 19:50:14;;;;;;;3.25;1.80;;;;;;;;;;10258795;28;20437;-95
2023/09/23 19:55:41;;;;;;;4.13;2.00;;;;;;;;;;10261867;28;20447;-95
2023/09/23 20:00:54;;;;;;;3.10;1.67;;;;;;;;;;10277317;28;20437;-94
2023/09/23 20:06:07;;;;;;;2.85;1.45;;;;;;;;;;10240169;28;20435;-95
2023/09/23 20:11:19;;;;;;;4.60;1.80;;;;;;;;;;10266291;29;20448;-96
2023/09/23 20:16:25;;;;;;;3.40;1.55;;;;;;;;;;10255802;29;20443;-96
2023/09/23 20:21:34;;;;;;;6.28;2.00;;;;;;;;;;10254107;28;20541;-95
2023/09/23 20:26:55;;;;;;;20.95;9.25;;;;;;;;;;10253418;28;20474;-96
2023/09/23 20:32:00;;;;;;;16.95;7.60;;;;;;;;;;10252566;28;20451;-95
2023/09/23 20:37:17;;;;;;;5.75;2.15;;;;;;;;;;10237959;28;20439;-96
2023/09/23 20:42:24;;;;;;;5.57;2.15;;;;;;;;;;10253089;28;20875;-95
2023/09/23 20:58:18;;;;;;;3.43;1.60;;;;;;;;;;10260483;28;20437;-95
2023/09/23 21:03:33;;;;;;;3.30;1.70;;;;;;;;;;10263075;28;20430;-94
2023/09/23 21:08:47;;;;;;;4.60;1.80;;;;;;;;;;10278129;28;20529;-93
2023/09/23 21:14:00;;;;;;;4.13;1.90;;;;;;;;;;10288276;28;20542;-94
2023/09/23 21:19:13;;;;;;;3.13;1.60;;;;;;;;;;10289727;28;20418;-95
2023/09/23 21:24:23;;;;;;;6.93;2.10;;;;;;;;;;10288581;28;20422;-94
2023/09/23 21:29:34;;;;;;;5.15;1.83;;;;;;;;;;10264045;28;20434;-94
2023/09/23 21:34:44;;;;;;;2.80;1.60;;;;;;;;;;10260403;28;20429;-95
2023/09/23 21:40:11;;;;;;;4.18;1.70;;;;;;;;;;10264664;28;20500;-94
2023/09/23 21:45:38;;;;;;;3.33;1.70;;;;;;;;;;10239994;28;20511;-93
2023/09/23 21:50:48;;;;;;;4.80;1.60;;;;;;;;;;10243656;28;20517;-81
2023/09/23 21:55:58;;;;;;;3.43;1.70;;;;;;;;;;10232670;28;20445;-80
2023/09/23 22:01:14;;;;;;;2.97;1.40;;;;;;;;;;10229903;28;20443;-80
2023/09/23 22:06:19;;;;;;;3.63;1.70;;;;;;;;;;10228810;28;20430;-80
2023/09/23 22:11:24;;;;;;;4.63;1.70;;;;;;;;;;10230198;28;20440;-82
2023/09/23 22:16:51;;;;;;;3.13;1.80;;;;;;;;;;10235544;28;20425;-80
2023/09/23 22:21:56;;;;;;;3.90;2.40;;;;;;;;;;10233254;28;20704;-78
2023/09/23 22:27:18;;;;;;;3.08;1.70;;;;;;;;;;10237502;28;20516;-79
2023/09/23 22:32:30;;;;;;;4.03;1.50;;;;;;;;;;10229946;28;20472;-79
2023/09/23 22:37:50;;;;;;;3.75;1.77;;;;;;;;;;10237595;28;20512;-78
2023/09/23 22:43:05;;;;;;;4.57;1.80;;;;;;;;;;10238599;28;20437;-78
2023/09/23 22:48:21;;;;;;;4.60;1.90;;;;;;;;;;10242594;28;20481;-77
2023/09/23 22:53:45;;;;;;;3.53;1.60;;;;;;;;;;10237937;28;20464;-78
2023/09/23 22:59:05;;;;;;;3.03;1.77;;;;;;;;;;10241219;28;20496;-78
2023/09/23 23:04:34;;;;;;;4.63;1.80;;;;;;;;;;10238184;28;20797;-78
2023/09/23 23:09:41;;;;;;;2.95;1.70;;;;;;;;;;10239768;28;20454;-78
2023/09/23 23:14:51;;;;;;;2.25;1.40;;;;;;;;;;10239869;28;20487;-78
2023/09/23 23:20:03;;;;;;;3.72;1.60;;;;;;;;;;10241114;28;20441;-81
2023/09/23 23:25:20;;;;;;;3.67;1.60;;;;;;;;;;10236674;28;20433;-80
2023/09/23 23:30:42;;;;;;;2.83;1.48;;;;;;;;;;10236748;28;20473;-79
2023/09/23 23:35:58;;;;;;;3.22;1.48;;;;;;;;;;10238221;28;20459;-79
2023/09/23 23:41:07;;;;;;;3.10;1.47;;;;;;;;;;10219436;28;20449;-80
2023/09/23 23:46:43;;;;;;;2.65;1.50;;;;;;;;;;10238646;28;20442;-79
2023/09/23 23:51:55;;;;;;;3.78;1.77;;;;;;;;;;10238355;28;20437;-79
2023/09/23 23:57:01;;;;;;;3.70;1.50;;;;;;;;;;10241482;28;20547;-79
